Time;durP1;ratioP1;P1;durP2;ratioP2;P2;SDS_P1;SDS_P2;PMS_P1;PMS_P2;Temp;Humidity;BMP_temperature;BMP_pressure;BME280_temperature;BME280_humidity;BME280_pressure;Samples;Min_cycle;Max_cycle;Signal;HPM_P1;HPM_P2
2022/08/14 00:02:08;;;;;;;1.73;1.10;;;;;;;;;;5030555;28;20052;-88
2022/08/14 00:04:53;;;;;;;3.60;0.98;;;;;;;;;;5030350;28;20056;-89
2022/08/14 00:07:39;;;;;;;2.55;1.20;;;;;;;;;;5005425;28;20531;-89
2022/08/14 00:10:25;;;;;;;1.95;1.02;;;;;;;;;;5031425;28;20041;-89
2022/08/14 00:13:11;;;;;;;1.95;1.15;;;;;;;;;;5030313;28;20052;-89
2022/08/14 00:15:57;;;;;;;2.25;0.90;;;;;;;;;;5018096;28;20041;-88
2022/08/14 00:18:43;;;;;;;3.70;0.90;;;;;;;;;;5017675;28;20053;-89
2022/08/14 00:21:29;;;;;;;1.95;1.23;;;;;;;;;;5005484;28;20030;-89
2022/08/14 00:24:15;;;;;;;1.63;1.00;;;;;;;;;;5016718;28;20037;-89
2022/08/14 00:27:00;;;;;;;2.65;1.08;;;;;;;;;;5016883;28;20049;-88
2022/08/14 00:29:46;;;;;;;2.13;1.10;;;;;;;;;;5029899;28;20095;-88
2022/08/14 00:32:32;;;;;;;2.17;1.13;;;;;;;;;;5029784;28;20036;-89
2022/08/14 00:35:17;;;;;;;2.38;1.10;;;;;;;;;;5016827;28;20041;-89
2022/08/14 00:38:03;;;;;;;3.25;1.33;;;;;;;;;;5017407;28;20033;-88
2022/08/14 00:40:51;;;;;;;1.90;1.25;;;;;;;;;;5029700;28;20053;-88
2022/08/14 00:43:36;;;;;;;1.83;1.10;;;;;;;;;;5017291;28;20033;-88
2022/08/14 00:46:22;;;;;;;1.40;0.90;;;;;;;;;;5016545;28;20041;-89
2022/08/14 00:49:11;;;;;;;2.20;1.15;;;;;;;;;;5029903;28;20030;-88
2022/08/14 00:51:59;;;;;;;2.13;1.40;;;;;;;;;;5005593;28;20109;-88
2022/08/14 00:54:49;;;;;;;1.90;0.70;;;;;;;;;;5029638;28;20037;-88
2022/08/14 00:57:36;;;;;;;2.42;1.30;;;;;;;;;;5032178;28;20044;-89
2022/08/14 01:00:22;;;;;;;1.65;0.90;;;;;;;;;;5033650;28;20074;-88
2022/08/14 01:03:07;;;;;;;1.50;0.88;;;;;;;;;;5036419;28;20051;-89
2022/08/14 01:05:53;;;;;;;1.65;1.05;;;;;;;;;;5034875;28;20045;-89
2022/08/14 01:08:42;;;;;;;1.55;0.90;;;;;;;;;;5033620;28;20503;-88
2022/08/14 01:11:28;;;;;;;3.40;1.33;;;;;;;;;;5021153;28;20552;-88
2022/08/14 01:14:17;;;;;;;2.47;0.93;;;;;;;;;;5033518;28;20107;-88
2022/08/14 01:17:03;;;;;;;2.72;1.17;;;;;;;;;;5020756;28;20045;-87
2022/08/14 01:22:53;;;;;;;3.78;1.27;;;;;;;;;;5024111;28;20471;-88
2022/08/14 01:25:40;;;;;;;1.70;1.05;;;;;;;;;;5022231;28;20033;-89
2022/08/14 01:28:26;;;;;;;2.03;1.38;;;;;;;;;;5020333;28;20030;-89
2022/08/14 01:31:15;;;;;;;2.55;1.33;;;;;;;;;;5020147;28;20045;-88
2022/08/14 01:34:03;;;;;;;2.60;1.08;;;;;;;;;;5021053;28;20049;-88
2022/08/14 01:36:49;;;;;;;1.98;1.25;;;;;;;;;;5033081;28;20037;-88
2022/08/14 01:39:35;;;;;;;1.70;1.20;;;;;;;;;;5008468;28;20045;-88
2022/08/14 01:42:21;;;;;;;3.22;0.88;;;;;;;;;;5008267;28;20053;-87
2022/08/14 01:45:11;;;;;;;1.85;1.30;;;;;;;;;;5008564;28;20088;-88
2022/08/14 01:47:57;;;;;;;1.67;1.13;;;;;;;;;;5007573;28;20048;-89
2022/08/14 01:50:43;;;;;;;2.85;0.93;;;;;;;;;;5006622;28;20029;-88
2022/08/14 01:53:30;;;;;;;1.92;1.17;;;;;;;;;;5032645;28;20431;-89
2022/08/14 01:56:19;;;;;;;2.38;1.23;;;;;;;;;;5032873;28;20116;-88
2022/08/14 01:59:06;;;;;;;3.40;1.17;;;;;;;;;;5020416;28;20038;-89
2022/08/14 02:01:54;;;;;;;2.00;0.88;;;;;;;;;;5019548;28;20137;-89
2022/08/14 02:04:39;;;;;;;2.00;1.10;;;;;;;;;;5019380;28;20038;-89
2022/08/14 02:07:25;;;;;;;1.38;1.02;;;;;;;;;;5019301;28;20026;-87
2022/08/14 02:10:11;;;;;;;1.40;0.90;;;;;;;;;;5031490;28;20038;-89
2022/08/14 02:12:57;;;;;;;2.33;1.42;;;;;;;;;;5007397;28;20042;-88
2022/08/14 02:15:43;;;;;;;2.30;1.27;;;;;;;;;;5032240;28;20030;-89
2022/08/14 02:18:29;;;;;;;1.73;1.13;;;;;;;;;;5019267;28;20044;-88
2022/08/14 02:21:17;;;;;;;1.10;0.82;;;;;;;;;;5032191;28;20052;-88
2022/08/14 02:24:03;;;;;;;1.60;0.90;;;;;;;;;;5019587;28;20073;-88
2022/08/14 02:26:50;;;;;;;3.10;1.60;;;;;;;;;;5033627;28;20396;-89
2022/08/14 02:29:35;;;;;;;1.20;0.85;;;;;;;;;;5007334;28;20095;-89
2022/08/14 02:32:21;;;;;;;1.40;0.80;;;;;;;;;;5018824;28;20112;-88
2022/08/14 02:35:12;;;;;;;2.40;1.00;;;;;;;;;;5033227;28;20033;-88
2022/08/14 02:37:58;;;;;;;1.70;1.23;;;;;;;;;;5032624;28;20519;-88
2022/08/14 02:40:44;;;;;;;2.08;1.10;;;;;;;;;;5031730;28;20084;-88
2022/08/14 02:43:30;;;;;;;1.33;0.90;;;;;;;;;;5031649;28;20538;-88
2022/08/14 02:46:16;;;;;;;1.38;1.00;;;;;;;;;;5032053;28;20041;-88
2022/08/14 02:49:02;;;;;;;1.92;1.10;;;;;;;;;;5031778;28;20040;-88
2022/08/14 02:51:48;;;;;;;1.90;1.13;;;;;;;;;;5018230;28;20131;-89
2022/08/14 02:54:34;;;;;;;1.48;1.15;;;;;;;;;;5031503;28;20045;-89
2022/08/14 02:57:20;;;;;;;1.83;1.00;;;;;;;;;;5018663;28;20130;-87
2022/08/14 03:00:08;;;;;;;2.10;1.02;;;;;;;;;;5032704;28;20079;-88
2022/08/14 03:02:53;;;;;;;2.22;1.00;;;;;;;;;;5007054;28;20041;-88
2022/08/14 03:05:39;;;;;;;2.67;1.17;;;;;;;;;;5007067;28;20551;-88
2022/08/14 03:08:30;;;;;;;1.73;0.85;;;;;;;;;;5031474;28;20048;-88
2022/08/14 03:11:16;;;;;;;1.80;1.00;;;;;;;;;;5034300;28;20068;-88
2022/08/14 03:14:01;;;;;;;1.58;1.10;;;;;;;;;;5020485;28;20037;-89
2022/08/14 03:16:49;;;;;;;2.03;1.10;;;;;;;;;;5031243;28;20041;-89
2022/08/14 03:19:35;;;;;;;2.50;1.30;;;;;;;;;;5017845;28;20076;-87
2022/08/14 03:22:20;;;;;;;1.23;1.00;;;;;;;;;;5006303;28;20428;-88
2022/08/14 03:25:07;;;;;;;2.38;1.48;;;;;;;;;;5030746;28;20038;-88
2022/08/14 03:27:53;;;;;;;1.77;0.98;;;;;;;;;;5006598;28;20029;-89
2022/08/14 03:30:39;;;;;;;1.70;1.25;;;;;;;;;;5006609;28;20041;-88
2022/08/14 03:33:26;;;;;;;1.58;1.20;;;;;;;;;;5030861;28;20030;-88
2022/08/14 03:36:13;;;;;;;2.05;1.25;;;;;;;;;;5017602;28;20044;-89
2022/08/14 03:38:59;;;;;;;1.67;1.15;;;;;;;;;;5017412;28;20037;-89
2022/08/14 03:41:46;;;;;;;1.50;1.10;;;;;;;;;;5017758;28;20053;-89
2022/08/14 03:44:34;;;;;;;1.40;0.93;;;;;;;;;;5017894;28;20060;-88
2022/08/14 03:47:19;;;;;;;1.75;1.08;;;;;;;;;;5030828;28;20047;-88
2022/08/14 03:50:08;;;;;;;2.15;1.40;;;;;;;;;;5006073;28;20042;-89
2022/08/14 03:52:53;;;;;;;2.10;1.27;;;;;;;;;;5017033;28;20547;-88
2022/08/14 03:55:40;;;;;;;1.58;1.20;;;;;;;;;;5030390;28;20504;-88
2022/08/14 03:58:27;;;;;;;4.07;1.73;;;;;;;;;;5006031;28;20052;-88
2022/08/14 04:01:14;;;;;;;1.80;1.10;;;;;;;;;;5029981;28;20484;-88
2022/08/14 04:04:04;;;;;;;1.55;0.95;;;;;;;;;;5030404;28;20132;-88
2022/08/14 04:06:50;;;;;;;2.58;1.30;;;;;;;;;;5029966;28;20471;-88
2022/08/14 04:09:36;;;;;;;1.95;1.40;;;;;;;;;;5030213;28;20111;-88
2022/08/14 04:12:22;;;;;;;1.85;1.25;;;;;;;;;;5017072;28;20045;-88
2022/08/14 04:15:08;;;;;;;1.75;1.25;;;;;;;;;;5030499;28;20045;-88
2022/08/14 04:17:54;;;;;;;1.85;1.30;;;;;;;;;;5031489;28;20049;-88
2022/08/14 04:20:41;;;;;;;1.80;1.30;;;;;;;;;;5030120;28;20041;-88
2022/08/14 04:23:26;;;;;;;1.50;1.27;;;;;;;;;;5029967;28;20038;-88
2022/08/14 04:26:13;;;;;;;2.08;1.35;;;;;;;;;;5030002;28;20037;-88
2022/08/14 04:28:59;;;;;;;1.85;1.42;;;;;;;;;;5005485;28;20060;-88
2022/08/14 04:31:46;;;;;;;2.95;1.38;;;;;;;;;;5003394;28;20053;-88
2022/08/14 04:34:33;;;;;;;2.05;1.20;;;;;;;;;;5005357;28;20041;-88
2022/08/14 04:43:38;;;;;;;2.30;1.80;;;;;;;;;;5021546;28;20038;-88
2022/08/14 04:46:27;;;;;;;1.90;1.50;;;;;;;;;;5007682;28;20072;-87
2022/08/14 04:49:12;;;;;;;3.05;1.55;;;;;;;;;;5005726;28;20041;-88
2022/08/14 04:51:59;;;;;;;1.98;1.30;;;;;;;;;;5016129;28;20037;-88
2022/08/14 04:54:45;;;;;;;1.83;1.52;;;;;;;;;;5005090;28;20040;-88
2022/08/14 04:57:30;;;;;;;2.47;1.45;;;;;;;;;;5018660;28;20045;-88
2022/08/14 05:00:16;;;;;;;2.33;1.48;;;;;;;;;;5005164;28;20381;-88
2022/08/14 05:03:03;;;;;;;2.47;1.60;;;;;;;;;;5029424;28;20029;-88
2022/08/14 05:05:50;;;;;;;2.80;1.63;;;;;;;;;;5030460;28;20433;-87
2022/08/14 05:08:35;;;;;;;2.25;1.45;;;;;;;;;;5030681;28;20038;-89
2022/08/14 05:11:21;;;;;;;2.28;1.45;;;;;;;;;;5016396;28;20048;-89
2022/08/14 05:14:07;;;;;;;2.78;1.50;;;;;;;;;;5016880;28;20029;-89
2022/08/14 05:16:56;;;;;;;3.25;1.58;;;;;;;;;;5029385;28;20555;-88
2022/08/14 05:19:43;;;;;;;2.00;1.50;;;;;;;;;;5030363;28;20132;-88
2022/08/14 05:22:29;;;;;;;2.67;1.42;;;;;;;;;;5029845;28;20042;-88
2022/08/14 05:25:19;;;;;;;2.45;1.58;;;;;;;;;;5029311;28;20072;-89
2022/08/14 05:28:12;;;;;;;1.70;1.13;;;;;;;;;;5017252;28;20091;-88
2022/08/14 05:31:00;;;;;;;1.77;1.45;;;;;;;;;;5017360;28;20037;-87
2022/08/14 05:33:46;;;;;;;1.88;1.27;;;;;;;;;;5005494;28;20514;-88
2022/08/14 05:36:32;;;;;;;2.00;1.52;;;;;;;;;;5029494;28;20116;-88
2022/08/14 05:39:18;;;;;;;1.92;1.35;;;;;;;;;;5028997;28;20100;-88
2022/08/14 05:42:04;;;;;;;1.83;1.20;;;;;;;;;;5029593;28;20084;-88
2022/08/14 05:44:49;;;;;;;1.58;1.40;;;;;;;;;;5021115;28;20052;-88
2022/08/14 05:47:39;;;;;;;2.67;1.55;;;;;;;;;;5032775;28;20638;-88
2022/08/14 05:50:25;;;;;;;2.25;1.70;;;;;;;;;;5019267;28;20045;-88
2022/08/14 05:53:11;;;;;;;2.20;1.65;;;;;;;;;;5008285;28;20393;-88
2022/08/14 05:55:57;;;;;;;2.53;1.65;;;;;;;;;;5008096;28;20045;-89
2022/08/14 05:58:44;;;;;;;2.20;1.60;;;;;;;;;;5019939;28;20514;-89
2022/08/14 06:01:29;;;;;;;2.15;1.55;;;;;;;;;;5019622;28;20037;-87
2022/08/14 06:04:16;;;;;;;2.20;1.40;;;;;;;;;;5021542;28;20048;-89
2022/08/14 06:07:02;;;;;;;2.03;1.60;;;;;;;;;;5019642;28;20068;-89
2022/08/14 06:09:47;;;;;;;2.85;1.60;;;;;;;;;;5008213;28;20108;-88
2022/08/14 06:12:33;;;;;;;2.35;1.50;;;;;;;;;;5032300;28;20041;-89
2022/08/14 06:15:19;;;;;;;2.70;1.67;;;;;;;;;;5019359;28;20536;-88
2022/08/14 06:18:05;;;;;;;2.40;1.83;;;;;;;;;;5033779;28;20052;-88
2022/08/14 06:20:50;;;;;;;3.00;1.70;;;;;;;;;;5032393;28;20110;-89
2022/08/14 06:23:36;;;;;;;2.38;1.70;;;;;;;;;;5007559;28;20042;-89
2022/08/14 06:26:22;;;;;;;3.58;1.95;;;;;;;;;;5019203;28;20125;-89
2022/08/14 06:29:09;;;;;;;2.30;1.50;;;;;;;;;;5019068;28;20049;-89
2022/08/14 06:31:54;;;;;;;1.67;1.48;;;;;;;;;;5032309;28;20042;-89
2022/08/14 06:34:40;;;;;;;2.08;1.75;;;;;;;;;;5020112;28;20491;-89
2022/08/14 06:37:26;;;;;;;3.50;1.77;;;;;;;;;;5018663;28;20064;-89
2022/08/14 06:40:13;;;;;;;1.65;1.55;;;;;;;;;;5031718;28;20503;-89
2022/08/14 06:43:03;;;;;;;3.28;1.92;;;;;;;;;;5007195;28;20037;-88
2022/08/14 06:45:50;;;;;;;2.25;1.70;;;;;;;;;;5007767;28;20048;-87
2022/08/14 06:48:35;;;;;;;2.50;1.55;;;;;;;;;;5018536;28;20037;-88
2022/08/14 06:51:21;;;;;;;2.25;1.70;;;;;;;;;;5006914;28;20041;-88
2022/08/14 06:54:07;;;;;;;1.90;1.60;;;;;;;;;;5017650;28;20041;-88
2022/08/14 06:56:52;;;;;;;2.00;1.73;;;;;;;;;;5017969;28;20546;-89
2022/08/14 06:59:38;;;;;;;2.30;1.90;;;;;;;;;;5032627;28;20511;-90
2022/08/14 07:05:47;;;;;;;3.38;2.15;;;;;;;;;;5033328;28;20041;-89
2022/08/14 07:08:33;;;;;;;2.20;1.65;;;;;;;;;;5023466;28;20131;-89
2022/08/14 07:11:18;;;;;;;2.50;1.88;;;;;;;;;;5006861;28;20057;-89
2022/08/14 07:14:04;;;;;;;3.90;2.28;;;;;;;;;;5019435;28;20041;-89
2022/08/14 07:16:50;;;;;;;2.47;1.63;;;;;;;;;;5032805;28;20144;-89
2022/08/14 07:19:35;;;;;;;2.97;2.00;;;;;;;;;;5032450;28;20044;-89
2022/08/14 07:22:21;;;;;;;4.13;2.22;;;;;;;;;;5017686;28;20034;-89
2022/08/14 07:25:07;;;;;;;2.90;2.20;;;;;;;;;;5030871;28;20091;-89
2022/08/14 07:27:53;;;;;;;3.85;1.75;;;;;;;;;;5018672;28;20487;-89
2022/08/14 07:30:39;;;;;;;4.28;1.98;;;;;;;;;;5018748;28;20512;-88
2022/08/14 07:33:32;;;;;;;2.05;1.67;;;;;;;;;;5006153;28;20128;-88
2022/08/14 07:36:19;;;;;;;2.50;2.00;;;;;;;;;;5017630;28;20080;-88
2022/08/14 07:39:05;;;;;;;2.67;1.95;;;;;;;;;;5005779;28;20043;-89
2022/08/14 07:41:51;;;;;;;4.10;1.90;;;;;;;;;;5006430;28;20096;-89
2022/08/14 07:44:36;;;;;;;1.98;1.48;;;;;;;;;;5006472;28;20114;-89
2022/08/14 07:47:22;;;;;;;3.47;1.90;;;;;;;;;;5017433;28;20491;-89
2022/08/14 07:50:16;;;;;;;2.15;1.70;;;;;;;;;;5018623;28;20056;-89
2022/08/14 07:53:02;;;;;;;3.83;1.70;;;;;;;;;;5006491;28;20125;-88
2022/08/14 07:55:48;;;;;;;2.88;1.75;;;;;;;;;;5030382;28;20068;-89
2022/08/14 07:58:35;;;;;;;2.42;1.52;;;;;;;;;;5019304;28;20091;-88
2022/08/14 08:01:20;;;;;;;5.60;2.10;;;;;;;;;;5029803;28;20045;-88
2022/08/14 08:04:07;;;;;;;2.38;2.05;;;;;;;;;;5017162;28;20065;-88
2022/08/14 08:06:53;;;;;;;2.45;1.60;;;;;;;;;;5017450;28;20416;-88
2022/08/14 08:09:51;;;;;;;3.53;1.70;;;;;;;;;;5017655;28;20045;-89
2022/08/14 08:12:37;;;;;;;2.45;1.63;;;;;;;;;;5019011;28;20478;-88
2022/08/14 08:15:24;;;;;;;2.50;1.60;;;;;;;;;;5016612;28;20079;-88
2022/08/14 08:18:11;;;;;;;2.40;1.75;;;;;;;;;;5005879;28;20045;-89
2022/08/14 08:20:58;;;;;;;2.22;1.92;;;;;;;;;;5030174;28;20071;-89
2022/08/14 08:23:44;;;;;;;2.53;1.60;;;;;;;;;;5030116;28;20124;-89
2022/08/14 08:26:29;;;;;;;3.50;1.70;;;;;;;;;;5029985;28;20053;-88
2022/08/14 08:29:22;;;;;;;2.30;1.58;;;;;;;;;;5032770;28;20463;-88
2022/08/14 08:32:07;;;;;;;2.60;1.55;;;;;;;;;;5031544;28;20085;-89
2022/08/14 08:34:53;;;;;;;2.35;1.70;;;;;;;;;;5005357;28;20037;-88
2022/08/14 08:37:39;;;;;;;1.85;1.45;;;;;;;;;;5016657;28;20525;-89
2022/08/14 08:40:30;;;;;;;2.95;1.70;;;;;;;;;;5016543;28;20045;-89
2022/08/14 08:43:28;;;;;;;2.35;1.48;;;;;;;;;;5005291;28;20492;-89
2022/08/14 08:46:18;;;;;;;2.22;1.77;;;;;;;;;;5030258;28;20086;-89
2022/08/14 08:49:04;;;;;;;2.90;1.83;;;;;;;;;;5029985;28;20053;-90
2022/08/14 08:51:52;;;;;;;3.53;1.50;;;;;;;;;;5005259;28;20064;-89
2022/08/14 08:54:37;;;;;;;2.22;1.63;;;;;;;;;;5017838;28;20048;-89
2022/08/14 08:57:24;;;;;;;2.15;1.58;;;;;;;;;;5004920;28;20416;-89
2022/08/14 09:00:14;;;;;;;1.77;1.42;;;;;;;;;;5016653;28;20112;-89
2022/08/14 09:03:14;;;;;;;2.00;1.60;;;;;;;;;;5004700;28;20120;-88
2022/08/14 09:06:04;;;;;;;1.90;1.50;;;;;;;;;;5006620;28;20389;-89
2022/08/14 09:08:50;;;;;;;2.75;1.40;;;;;;;;;;5028973;28;20487;-89
2022/08/14 09:11:36;;;;;;;2.72;1.58;;;;;;;;;;5029497;28;20042;-90
2022/08/14 09:14:22;;;;;;;1.90;1.35;;;;;;;;;;5030202;28;20041;-89
2022/08/14 09:17:07;;;;;;;1.83;1.20;;;;;;;;;;5004433;28;20049;-88
2022/08/14 09:19:54;;;;;;;2.05;1.55;;;;;;;;;;5033454;28;20034;-89
2022/08/14 09:22:40;;;;;;;2.50;1.23;;;;;;;;;;5008900;28;20092;-89
2022/08/14 09:25:26;;;;;;;2.58;1.45;;;;;;;;;;5008425;28;20037;-89
2022/08/14 09:28:12;;;;;;;1.33;1.10;;;;;;;;;;5019828;28;20045;-89
2022/08/14 09:30:57;;;;;;;1.55;1.23;;;;;;;;;;5008856;28;20045;-89
2022/08/14 09:33:50;;;;;;;2.70;1.20;;;;;;;;;;5006456;28;20034;-89
2022/08/14 09:36:42;;;;;;;1.92;1.10;;;;;;;;;;5020871;28;20033;-89
2022/08/14 09:39:30;;;;;;;;;;;;;;;;;;5009327;28;20041;-89
2022/08/14 09:42:43;;;;;;;1.77;1.20;;;;;;;;;;5034828;28;19917;-89
2022/08/14 09:45:43;;;;;;;2.08;1.35;;;;;;;;;;5033638;28;20065;-88
2022/08/14 09:48:29;;;;;;;2.83;1.27;;;;;;;;;;5033552;28;20041;-88
2022/08/14 09:51:22;;;;;;;1.85;1.23;;;;;;;;;;5033964;28;20415;-87
2022/08/14 09:54:11;;;;;;;2.55;1.00;;;;;;;;;;5033751;28;20041;-88
2022/08/14 09:56:57;;;;;;;2.13;1.20;;;;;;;;;;5032658;28;20045;-88
2022/08/14 09:59:45;;;;;;;2.13;1.20;;;;;;;;;;5020297;28;20080;-88
2022/08/14 10:02:32;;;;;;;2.08;1.55;;;;;;;;;;5008208;28;20041;-88
2022/08/14 10:05:30;;;;;;;1.65;1.15;;;;;;;;;;5033448;28;20033;-89
2022/08/14 10:08:19;;;;;;;2.13;1.20;;;;;;;;;;5008257;28;20037;-89
2022/08/14 10:11:21;;;;;;;1.60;1.10;;;;;;;;;;5018863;28;20133;-88
2022/08/14 10:14:18;;;;;;;2.53;1.35;;;;;;;;;;5020335;28;20034;-88
2022/08/14 10:17:04;;;;;;;1.00;0.90;;;;;;;;;;5032534;28;20056;-88
2022/08/14 10:19:50;;;;;;;1.52;1.10;;;;;;;;;;5031966;28;20128;-88
2022/08/14 10:22:37;;;;;;;2.00;1.10;;;;;;;;;;5019457;28;20041;-88
2022/08/14 10:25:25;;;;;;;1.77;0.88;;;;;;;;;;5006392;28;20064;-89
2022/08/14 10:28:14;;;;;;;1.05;0.90;;;;;;;;;;5008016;28;20041;-88
2022/08/14 10:31:00;;;;;;;1.48;1.15;;;;;;;;;;5006529;28;20045;-88
2022/08/14 10:34:05;;;;;;;1.30;1.05;;;;;;;;;;5019518;28;20495;-88
2022/08/14 10:36:51;;;;;;;1.50;0.82;;;;;;;;;;5019853;28;20041;-89
2022/08/14 10:39:38;;;;;;;1.40;0.90;;;;;;;;;;5032675;28;20081;-88
2022/08/14 10:42:36;;;;;;;2.33;1.23;;;;;;;;;;5018772;28;20041;-88
2022/08/14 10:45:32;;;;;;;2.85;1.00;;;;;;;;;;5032004;28;20044;-88
2022/08/14 10:48:18;;;;;;;1.48;1.13;;;;;;;;;;5018526;28;20053;-88
2022/08/14 10:51:04;;;;;;;1.13;0.77;;;;;;;;;;5006676;28;20264;-88
2022/08/14 10:53:53;;;;;;;1.58;1.02;;;;;;;;;;5017936;28;20105;-88
2022/08/14 10:56:39;;;;;;;1.05;0.90;;;;;;;;;;5007075;28;20037;-88
2022/08/14 10:59:25;;;;;;;1.83;1.00;;;;;;;;;;5031597;28;20041;-88
2022/08/14 11:02:38;;;;;;;2.03;1.23;;;;;;;;;;5006832;28;20080;-89
2022/08/14 11:05:25;;;;;;;1.58;1.08;;;;;;;;;;5020849;28;20112;-88
2022/08/14 11:08:14;;;;;;;1.10;0.82;;;;;;;;;;5017441;28;20041;-87
2022/08/14 11:11:04;;;;;;;1.35;0.80;;;;;;;;;;5007333;28;20088;-88
2022/08/14 11:13:56;;;;;;;1.77;0.80;;;;;;;;;;5018616;28;20036;-88
2022/08/14 11:16:41;;;;;;;1.25;1.02;;;;;;;;;;5018397;28;20052;-87
2022/08/14 11:19:28;;;;;;;9.52;2.40;;;;;;;;;;5017118;28;20041;-84
2022/08/14 11:22:14;;;;;;;3.85;1.52;;;;;;;;;;5018076;28;20077;-85
2022/08/14 11:25:01;;;;;;;8.00;1.70;;;;;;;;;;5030114;28;20047;-83
2022/08/14 11:27:48;;;;;;;3.03;1.83;;;;;;;;;;5031772;28;20037;-83
2022/08/14 11:30:37;;;;;;;4.90;3.13;;;;;;;;;;5030252;28;20578;-82
2022/08/14 11:33:24;;;;;;;6.47;3.75;;;;;;;;;;5029680;28;20037;-82
2022/08/14 11:36:10;;;;;;;10.45;3.60;;;;;;;;;;5030980;28;20099;-83
2022/08/14 11:38:57;;;;;;;14.98;12.63;;;;;;;;;;5005231;28;20056;-84
2022/08/14 11:41:45;;;;;;;9.95;5.10;;;;;;;;;;5018103;28;20048;-86
2022/08/14 11:44:30;;;;;;;9.50;4.25;;;;;;;;;;5019582;28;20048;-85
2022/08/14 11:47:18;;;;;;;6.03;2.67;;;;;;;;;;5018026;28;20033;-86
2022/08/14 11:50:20;;;;;;;6.07;2.30;;;;;;;;;;5017993;28;20045;-86
2022/08/14 11:53:06;;;;;;;3.92;2.10;;;;;;;;;;5004737;28;20037;-86
2022/08/14 11:56:01;;;;;;;2.55;1.65;;;;;;;;;;5018307;28;20049;-88
2022/08/14 11:58:52;;;;;;;5.78;1.55;;;;;;;;;;5017601;28;20034;-89
2022/08/14 12:01:37;;;;;;;1.75;1.33;;;;;;;;;;5017082;28;20492;-88
2022/08/14 12:04:23;;;;;;;2.38;1.25;;;;;;;;;;5031416;28;20411;-87
2022/08/14 12:07:09;;;;;;;3.67;1.67;;;;;;;;;;5030003;28;20570;-89
2022/08/14 12:09:55;;;;;;;3.30;1.65;;;;;;;;;;5005178;28;20049;-84
2022/08/14 12:12:41;;;;;;;4.30;1.80;;;;;;;;;;5017850;28;20040;-86
2022/08/14 12:15:28;;;;;;;2.92;1.25;;;;;;;;;;5016726;28;20096;-89
2022/08/14 12:18:28;;;;;;;5.68;1.35;;;;;;;;;;5005541;28;20537;-86
2022/08/14 12:21:18;;;;;;;2.63;1.55;;;;;;;;;;5015841;28;20507;-83
2022/08/14 12:24:09;;;;;;;3.75;1.63;;;;;;;;;;5029279;28;20041;-83
2022/08/14 12:26:55;;;;;;;2.13;1.35;;;;;;;;;;5004465;28;20033;-81
2022/08/14 12:29:52;;;;;;;4.18;1.98;;;;;;;;;;5004009;28;20041;-82
2022/08/14 12:32:42;;;;;;;3.17;1.35;;;;;;;;;;5029208;28;20508;-81
2022/08/14 12:35:41;;;;;;;1.50;1.40;;;;;;;;;;5015792;28;20415;-81
2022/08/14 12:38:33;;;;;;;3.47;1.85;;;;;;;;;;5019066;28;20068;-82
2022/08/14 12:41:21;;;;;;;3.92;3.45;;;;;;;;;;5016271;28;20478;-83
2022/08/14 12:44:07;;;;;;;4.35;2.60;;;;;;;;;;5003990;28;20467;-82
2022/08/14 12:47:09;;;;;;;4.22;2.20;;;;;;;;;;5028424;28;20500;-81
2022/08/14 12:49:56;;;;;;;3.75;1.75;;;;;;;;;;5019129;28;20094;-82
2022/08/14 12:52:42;;;;;;;2.75;1.75;;;;;;;;;;5028986;28;20038;-82
2022/08/14 12:55:28;;;;;;;1.90;1.23;;;;;;;;;;5004347;28;20040;-83
2022/08/14 12:58:13;;;;;;;2.75;1.80;;;;;;;;;;5029998;28;20037;-85
2022/08/14 13:01:00;;;;;;;2.33;1.40;;;;;;;;;;5028991;28;20033;-84
2022/08/14 13:03:46;;;;;;;3.72;1.70;;;;;;;;;;5004198;28;20041;-82
2022/08/14 13:06:34;;;;;;;2.92;1.80;;;;;;;;;;5016673;28;20030;-83
2022/08/14 13:09:20;;;;;;;2.72;1.70;;;;;;;;;;5004140;28;20053;-84
2022/08/14 13:12:06;;;;;;;3.72;1.55;;;;;;;;;;5028492;28;20038;-84
2022/08/14 13:14:55;;;;;;;4.28;1.85;;;;;;;;;;5016298;28;20041;-83
2022/08/14 13:17:45;;;;;;;3.75;1.92;;;;;;;;;;5028652;28;20075;-84
2022/08/14 13:20:32;;;;;;;5.50;1.65;;;;;;;;;;5004305;28;20041;-83
2022/08/14 13:23:19;;;;;;;3.97;1.60;;;;;;;;;;5004534;28;20487;-83
2022/08/14 13:26:05;;;;;;;5.47;1.85;;;;;;;;;;5028565;28;20414;-83
2022/08/14 13:28:52;;;;;;;2.80;1.60;;;;;;;;;;5004426;28;20516;-83
2022/08/14 13:31:40;;;;;;;3.72;1.50;;;;;;;;;;5029843;28;20132;-84
2022/08/14 13:34:27;;;;;;;3.60;1.42;;;;;;;;;;5028143;28;20036;-84
2022/08/14 13:37:16;;;;;;;5.93;1.63;;;;;;;;;;5004028;28;20029;-83
2022/08/14 13:40:06;;;;;;;3.08;1.60;;;;;;;;;;5015646;28;20045;-84
2022/08/14 13:42:52;;;;;;;2.70;1.65;;;;;;;;;;5015988;28;20037;-84
2022/08/14 13:45:38;;;;;;;3.53;1.60;;;;;;;;;;5003557;28;20523;-83
2022/08/14 13:48:25;;;;;;;5.63;2.33;;;;;;;;;;5017161;28;20045;-85
2022/08/14 13:51:11;;;;;;;4.95;1.60;;;;;;;;;;5016194;28;20029;-84
2022/08/14 13:53:57;;;;;;;6.72;1.73;;;;;;;;;;5029276;28;20123;-84
2022/08/14 13:56:44;;;;;;;4.35;1.58;;;;;;;;;;5028402;28;20082;-84
2022/08/14 13:59:31;;;;;;;6.30;1.75;;;;;;;;;;5027900;28;20037;-84
2022/08/14 14:02:19;;;;;;;4.38;1.95;;;;;;;;;;5004031;28;20046;-84
2022/08/14 14:05:06;;;;;;;3.95;1.80;;;;;;;;;;5007152;28;20046;-85
2022/08/14 14:07:52;;;;;;;4.05;1.63;;;;;;;;;;5032222;28;20041;-85
2022/08/14 14:10:38;;;;;;;2.25;1.65;;;;;;;;;;5031787;28;20051;-84
2022/08/14 14:13:24;;;;;;;4.18;1.67;;;;;;;;;;5007764;28;20593;-85
2022/08/14 14:16:10;;;;;;;7.72;2.72;;;;;;;;;;5007307;28;20045;-85
2022/08/14 14:19:00;;;;;;;6.38;1.88;;;;;;;;;;5006311;28;20045;-84
2022/08/14 14:21:49;;;;;;;3.83;2.50;;;;;;;;;;5007943;28;20431;-85
2022/08/14 14:24:35;;;;;;;6.50;4.85;;;;;;;;;;5031480;28;20504;-84
2022/08/14 14:27:24;;;;;;;9.15;7.75;;;;;;;;;;5032359;28;20408;-84
2022/08/14 14:30:10;;;;;;;6.18;5.40;;;;;;;;;;5032811;28;20526;-88
2022/08/14 14:32:56;;;;;;;5.90;3.65;;;;;;;;;;5033704;28;20052;-89
2022/08/14 14:35:43;;;;;;;3.10;2.58;;;;;;;;;;5032463;28;20038;-89
2022/08/14 14:38:30;;;;;;;3.90;2.60;;;;;;;;;;5019229;28;20124;-89
2022/08/14 14:41:19;;;;;;;3.47;2.22;;;;;;;;;;5035131;28;20037;-89
2022/08/14 14:44:10;;;;;;;5.13;2.42;;;;;;;;;;5033427;28;20042;-89
2022/08/14 14:46:57;;;;;;;3.67;2.10;;;;;;;;;;5008798;28;20462;-89
2022/08/14 14:49:43;;;;;;;3.30;1.75;;;;;;;;;;5032213;28;20049;-89
2022/08/14 14:52:31;;;;;;;1.98;1.67;;;;;;;;;;5032082;28;20049;-88
2022/08/14 14:55:17;;;;;;;4.15;2.03;;;;;;;;;;5019340;28;20050;-87
2022/08/14 14:58:04;;;;;;;7.78;1.83;;;;;;;;;;5019746;28;20046;-87
2022/08/14 15:00:53;;;;;;;2.75;1.58;;;;;;;;;;5031742;28;20524;-87
2022/08/14 15:03:44;;;;;;;2.65;1.63;;;;;;;;;;5019324;28;20037;-89
2022/08/14 15:06:31;;;;;;;2.47;1.73;;;;;;;;;;5031139;28;20061;-88
2022/08/14 15:09:17;;;;;;;2.17;1.60;;;;;;;;;;5018250;28;20264;-86
2022/08/14 15:12:05;;;;;;;2.40;1.60;;;;;;;;;;5006187;28;20037;-85
2022/08/14 15:14:54;;;;;;;2.67;1.70;;;;;;;;;;5005667;28;20037;-87
2022/08/14 15:17:41;;;;;;;3.47;1.73;;;;;;;;;;5030245;28;20045;-85
2022/08/14 15:20:27;;;;;;;4.35;1.52;;;;;;;;;;5006222;28;20060;-86
2022/08/14 15:23:14;;;;;;;4.30;2.08;;;;;;;;;;5017387;28;20033;-82
2022/08/14 15:26:00;;;;;;;4.88;2.30;;;;;;;;;;5030381;28;20042;-83
2022/08/14 15:28:47;;;;;;;4.57;1.92;;;;;;;;;;5016744;28;20084;-81
2022/08/14 15:31:33;;;;;;;3.97;1.98;;;;;;;;;;5031003;28;20041;-81
2022/08/14 15:34:19;;;;;;;2.25;1.60;;;;;;;;;;5030385;28;20430;-79
2022/08/14 15:37:05;;;;;;;3.55;2.47;;;;;;;;;;5016869;28;20076;-80
2022/08/14 15:39:52;;;;;;;2.97;2.10;;;;;;;;;;5017586;28;20044;-81
2022/08/14 15:42:38;;;;;;;2.75;1.90;;;;;;;;;;5005854;28;20053;-85
2022/08/14 15:45:24;;;;;;;2.83;1.55;;;;;;;;;;5017628;28;20049;-84
2022/08/14 15:48:10;;;;;;;2.25;1.45;;;;;;;;;;5019286;28;20033;-82
2022/08/14 15:50:56;;;;;;;3.35;1.75;;;;;;;;;;5029633;28;20041;-81
2022/08/14 15:53:42;;;;;;;2.20;1.35;;;;;;;;;;5030514;28;20038;-89
2022/08/14 15:56:31;;;;;;;2.63;1.70;;;;;;;;;;5031136;28;20096;-88
2022/08/14 15:59:17;;;;;;;2.47;1.25;;;;;;;;;;5005938;28;20084;-87
2022/08/14 16:02:05;;;;;;;2.95;1.88;;;;;;;;;;5017761;28;20046;-85
2022/08/14 16:04:52;;;;;;;2.85;1.83;;;;;;;;;;5031540;28;20120;-86
2022/08/14 16:07:39;;;;;;;3.67;1.70;;;;;;;;;;5030603;28;20057;-87
2022/08/14 16:10:28;;;;;;;7.00;2.70;;;;;;;;;;5017311;28;20519;-88
2022/08/14 16:13:15;;;;;;;3.15;1.48;;;;;;;;;;5030469;28;20037;-88
2022/08/14 16:16:04;;;;;;;3.17;1.90;;;;;;;;;;5030432;28;20030;-87
2022/08/14 16:18:51;;;;;;;6.72;2.15;;;;;;;;;;5030430;28;20103;-85
2022/08/14 16:21:38;;;;;;;5.47;2.10;;;;;;;;;;5006211;28;20044;-88
2022/08/14 16:24:31;;;;;;;3.95;2.03;;;;;;;;;;5030192;28;20566;-88
2022/08/14 16:27:17;;;;;;;4.88;1.90;;;;;;;;;;5018013;28;20389;-88
2022/08/14 16:30:05;;;;;;;5.38;1.92;;;;;;;;;;5029971;28;20427;-87
2022/08/14 16:32:55;;;;;;;5.13;2.30;;;;;;;;;;5017205;28;20033;-87
2022/08/14 16:35:41;;;;;;;3.72;1.95;;;;;;;;;;5017244;28;20044;-86
2022/08/14 16:38:31;;;;;;;4.57;2.35;;;;;;;;;;5015592;28;20033;-83
2022/08/14 16:41:19;;;;;;;3.42;2.60;;;;;;;;;;5017534;28;20566;-84
2022/08/14 16:44:06;;;;;;;5.78;2.55;;;;;;;;;;5016010;28;20045;-86
2022/08/14 16:46:52;;;;;;;4.60;2.25;;;;;;;;;;5030072;28;20041;-85
2022/08/14 16:49:39;;;;;;;3.70;2.05;;;;;;;;;;5029126;28;20045;-83
2022/08/14 16:52:24;;;;;;;4.13;2.67;;;;;;;;;;5028968;28;20041;-87
2022/08/14 16:55:10;;;;;;;5.20;3.38;;;;;;;;;;5030241;28;20046;-87
2022/08/14 16:57:56;;;;;;;6.07;5.07;;;;;;;;;;5028496;28;20092;-86